Georgetown, TX

1:03 AM CDT on September 05, 2015 (GMT -0500)
The Square | | Change Station
CLOSE
Current Station
Personal Weather Station
Location: Georgetown, TX
Elevation: 778 ft
Nearby Weather Stations

Elev 778 ft 30.64 °N, 97.68 °W | Updated 5 minutes ago

Clear
Clear
79.7 °F
Feels Like 84 °F
N
0.0
Wind Variable Wind from SW

Today
High -- | Low -- °F
--% Chance of Precip.
Yesterday
High -- | Low -- °F
Precip. -- in
7:09 AM 7:48 PM
Waning Gibbous, 52% visible
Pressure 29.96 in
Visibility 10.0 miles
Clouds Few 2000 ft
Heat Index 84 °F
Dew Point 74 °F
Humidity 83%
Rainfall 0.00 in
Snow Depth Not available.
UV 0 out of 12
Pollen 7.50 out of 12
Air Quality Not available.
Flu Activity Not available.
METAR KGTU 050555Z 16005KT 10SM FEW020 27/22 A2996 RMK AO1 10320 20270 403600240 54000
Pressure 29.96 in
Visibility 10.0 miles
Clouds Few 2000 ft
Heat Index 84 °F
Dew Point 74 °F
Humidity 83%
Rainfall 0.00 in
Snow Depth Not available.
UV 0 out of 12
Pollen 7.50 out of 12
Air Quality Not available.
Flu Activity Not available.
METAR KGTU 050555Z 16005KT 10SM FEW020 27/22 A2996 RMK AO1 10320 20270 403600240 54000

10-Day Weather Forecast

×

Almanac

Astronomy

Sep. 05, 2015 Rise Set
Actual Time
Civil Twilight
Nautical Twilight
Astronomical Twilight
Moon
Length of Visible Light
Length of Day
Tomorrow will be .
, % of the Moon is Illuminated

Today's Extremes

State Highs State Lows

Community

WunderPhotos

Upload Photos

1,852,431 photos uploaded!

WunderBlogs® & News

Nearby

Air Quality

  Air Quality AQ Index Pollutant
Not available.

Snow Depth

Station Depth Elevation

Earthquake Activity

City Distance Mag. Time & Date
Minimum magnitude displayed is 2.5.

Coastal Water Temperatures

Place Temperature

Stations

Nearby Weather Stations

Station Location Temp. Windchill Dew Point Humidity Wind Precip. Elev Updated Type